Flight Track Log - Related Links

Times and Time Zones

All times are in EDT time to prevent confusion due to time zone crossing. See the DAL268 flight status page for this flight to view local times or setup timezone preferences in your user account.

Time Position Orientation Groundspeed Altitude Reporting Facility
EDT Latitude Longitude Course Direction KTS MPH feet Rate Location/Type
Sun 02:41:15 PM 37.6262 -122.3680 North 168 193 400  Level FlightAware ADS-B
Sun 02:41:26 PM 37.6337 -122.3630 28° Northeast 172 198 800 2,118 Climbing FlightAware ADS-B
Sun 02:41:32 PM 37.6376 -122.3600 31° Northeast 175 201 1,000 2,500 Climbing FlightAware ADS-B
Sun 02:41:38 PM 37.6411 -122.3560 42° Northeast 178 205 1,300 2,308 Climbing FlightAware ADS-B
Sun 02:41:45 PM 37.6452 -122.3500 49° Northeast 186 214 1,500 1,579 Climbing FlightAware ADS-B
Sun 02:41:57 PM 37.6525 -122.3400 47° Northeast 195 224 1,800 1,600 Climbing FlightAware ADS-B
Sun 02:42:15 PM 37.6641 -122.3250 46° Northeast 211 243 2,300 1,818 Climbing FlightAware ADS-B
Sun 02:42:30 PM 37.6752 -122.3110 45° Northeast 217 250 2,800 1,742 Climbing FlightAware ADS-B
Sun 02:42:46 PM 37.6868 -122.2960 46° Northeast 233 268 3,200 1,500 Climbing FlightAware ADS-B
Sun 02:42:54 PM 37.6925 -122.2890 44° Northeast 243 280 3,400 1,565 Climbing FlightAware ADS-B
Sun 02:43:09 PM 37.7049 -122.2730 46° Northeast 252 290 3,800 2,063 Climbing FlightAware ADS-B
Sun 02:43:26 PM 37.7197 -122.2540 45° Northeast 259 298 4,500 2,250 Climbing FlightAware ADS-B
Sun 02:43:33 PM 37.7262 -122.2470 40° Northeast 263 303 4,700 2,000 Climbing FlightAware ADS-B
Sun 02:43:50 PM 37.7432 -122.2310 37° Northeast 272 313 5,300 2,182 Climbing FlightAware ADS-B
Sun 02:44:06 PM 37.7592 -122.2150 38° Northeast 278 320 5,900 2,438 Climbing FlightAware ADS-B
Sun 02:44:22 PM 37.7749 -122.2000 37° Northeast 278 320 6,600 2,903 Climbing FlightAware ADS-B
Sun 02:44:37 PM 37.7910 -122.1850 36° Northeast 276 318 7,400 2,516 Climbing FlightAware ADS-B
Sun 02:44:53 PM 37.8068 -122.1700 37° Northeast 282 325 7,900 1,935 Climbing FlightAware ADS-B
Sun 02:45:08 PM 37.8230 -122.1550 36° Northeast 288 331 8,400 2,400 Climbing FlightAware ADS-B
Sun 02:45:18 PM 37.8345 -122.1440 37° Northeast 289 333 8,900 2,308 Climbing FlightAware ADS-B
Sun 02:45:34 PM 37.8505 -122.1280 38° Northeast 293 337 9,400 1,688 Climbing FlightAware ADS-B
Sun 02:45:50 PM 37.8678 -122.1110 38° Northeast 302 348 9,800 1,875 Climbing FlightAware ADS-B
Sun 02:46:06 PM 37.8863 -122.0930 38° Northeast 304 350 10,400 1,909 Climbing FlightAware ADS-B
Sun 02:46:12 PM 37.8918 -122.0860 45° Northeast 309 356 10,500 1,125 Climbing FlightAware ADS-B
Sun 02:46:22 PM 37.9012 -122.0700 53° Northeast 319 367 10,700 1,050 Climbing FlightAware ADS-B
Sun 02:46:52 PM 37.9268 -122.0210 56° Northeast 348 400 11,200 984 Climbing FlightAware ADS-B
Sun 02:47:23 PM 37.9552 -121.9660 57° Northeast 373 429 11,700 1,143 Climbing FlightAware ADS-B
Sun 02:47:55 PM 37.9857 -121.9080 56° Northeast 389 448 12,400 1,636 Climbing FlightAware ADS-B
Sun 02:48:29 PM 38.0208 -121.8430 56° Northeast 392 451 13,500 2,000 Climbing FlightAware ADS-B
Sun 02:49:04 PM 38.0564 -121.7750 56° Northeast 399 459 14,700 2,000 Climbing FlightAware ADS-B
Sun 02:49:35 PM 38.0880 -121.7140 57° Northeast 408 470 15,700 1,935 Climbing FlightAware ADS-B
Sun 02:50:06 PM 38.1199 -121.6520 57° Northeast 409 471 16,700 1,839 Climbing FlightAware ADS-B
Sun 02:50:37 PM 38.1525 -121.5890 57° Northeast 416 479 17,600 1,672 Climbing FlightAware ADS-B
Sun 02:51:07 PM 38.1860 -121.5260 56° Northeast 422 486 18,400 1,700 Climbing FlightAware ADS-B
Sun 02:51:37 PM 38.2195 -121.4640 55° Northeast 425 489 19,300 1,645 Climbing FlightAware ADS-B
Sun 02:52:09 PM 38.2555 -121.3990 55° Northeast 433 498 20,100 1,393 Climbing FlightAware ADS-B
Sun 02:52:33 PM 38.2775 -121.3586 57° Northeast 429 494 20,600 1,500 Climbing Oakland Center
Sun 02:52:41 PM 38.2922 -121.3330 55° Northeast 438 504 20,900 1,263 Climbing FlightAware ADS-B
Sun 02:53:11 PM 38.3282 -121.2680 55° Northeast 448 516 21,400 1,100 Climbing FlightAware ADS-B
Sun 02:53:41 PM 38.3648 -121.2020 55° Northeast 458 527 22,000 1,279 Climbing FlightAware ADS-B
Sun 02:54:12 PM 38.4025 -121.1330 55° Northeast 463 533 22,700 1,375 Climbing FlightAware ADS-B
Sun 02:55:17 PM 38.4826 -120.9870 55° Northeast 469 540 24,200 1,279 Climbing FlightAware ADS-B
Sun 02:58:00 PM 38.6638 -120.6058 57° Northeast  Level FlightAware Approximate
Sun 02:58:16 PM 38.7080 -120.5720 57° Northeast 491 565 27,900  Level FlightAware ADS-B
Sun 02:58:53 PM 38.7570 -120.4810 55° Northeast 496 571 28,500 1,200 Climbing FlightAware ADS-B
Sun 02:59:31 PM 38.8040 -120.3930 56° Northeast 493 567 29,400 1,327 Climbing FlightAware ADS-B
Sun 03:00:46 PM 38.8917 -120.2314 56° Northeast 488 562 31,000 699 Climbing Oakland Center
Sun 03:07:32 PM 39.3800 -119.3020 56° Northeast 471 542 35,000 480 Climbing FlightAware ADS-B
Sun 03:09:06 PM 39.5040 -119.0620 56° Northeast 472 543 35,000  Level FlightAware ADS-B
Sun 03:11:01 PM 39.6500 -118.7770 56° Northeast 473 544 35,000  Level FlightAware ADS-B
Sun 03:14:04 PM 39.8680 -118.3470 56° Northeast 470 541 35,000  Level FlightAware ADS-B
Sun 03:15:07 PM 39.9369 -118.2069 56° Northeast 467 537 35,000  Level Oakland Center
Sun 03:16:09 PM 40.0081 -118.0647 57° Northeast 468 539 35,000  Level Oakland Center
Sun 03:21:19 PM 40.3170 -117.4450 57° Northeast 470 541 35,000  Level FlightAware ADS-B
Sun 03:22:18 PM 40.4492 -117.1733 57° Northeast 472 543 35,000  Level Oakland Center
Sun 03:23:19 PM 40.5186 -117.0353 56° Northeast 476 548 35,000  Level Oakland Center
Sun 03:29:12 PM 40.7962 -116.0800 56° Northeast 464 534 35,000  Level FlightAware ADS-B
Sun 03:29:44 PM 40.8187 -115.9950 71° East 463 533 35,000  Level FlightAware ADS-B
Sun 03:30:19 PM 40.8436 -115.9000 71° East 461 531 35,000  Level FlightAware ADS-B
Sun 03:30:50 PM 40.8650 -115.8190 71° East 460 529 35,000  Level FlightAware ADS-B
Sun 03:31:53 PM 40.9085 -115.6520 71° East 460 529 35,000  Level FlightAware ADS-B
Sun 03:32:43 PM 40.9429 -115.5200 71° East 460 529 35,000  Level FlightAware ADS-B
Sun 03:33:35 PM 40.9786 -115.3820 71° East 459 528 35,000  Level FlightAware ADS-B
Sun 03:34:05 PM 40.9993 -115.3010 71° East 458 527 35,000  Level FlightAware ADS-B
Sun 03:34:36 PM 41.0203 -115.2190 71° East 459 528 35,000  Level FlightAware ADS-B
Sun 03:35:06 PM 41.0408 -115.1390 71° East 459 528 35,000  Level FlightAware ADS-B
Sun 03:35:37 PM 41.0616 -115.0570 71° East 459 528 35,000  Level FlightAware ADS-B
Sun 03:36:08 PM 41.0824 -114.9750 71° East 460 529 35,000  Level FlightAware ADS-B
Sun 03:36:38 PM 41.1026 -114.8960 71° East 461 531 35,000  Level FlightAware ADS-B
Sun 03:37:09 PM 41.1232 -114.8140 72° East 460 529 35,000  Level FlightAware ADS-B
Sun 03:37:42 PM 41.1454 -114.7250 72° East 460 529 35,000  Level FlightAware ADS-B
Sun 03:38:12 PM 41.1655 -114.6450 72° East 459 528 35,000  Level FlightAware ADS-B
Sun 03:38:42 PM 41.1857 -114.5640 72° East 460 529 35,000  Level FlightAware ADS-B
Sun 03:39:13 PM 41.2061 -114.4820 72° East 460 529 35,000  Level FlightAware ADS-B
Sun 03:40:02 PM 41.2389 -114.3490 72° East 460 529 35,000  Level FlightAware ADS-B
Sun 03:40:33 PM 41.2589 -114.2680 72° East 459 528 35,000  Level FlightAware ADS-B
Sun 03:41:08 PM 41.2823 -114.1730 72° East 459 528 35,000  Level FlightAware ADS-B
Sun 03:41:38 PM 41.3019 -114.0920 72° East 458 527 35,000  Level FlightAware ADS-B
Sun 03:42:09 PM 41.3219 -114.0100 72° East 459 528 35,000  Level FlightAware ADS-B
Sun 03:42:39 PM 41.3415 -113.9290 72° East 459 528 35,000  Level FlightAware ADS-B
Sun 03:43:02 PM 41.3558 -113.8680 73° East 460 529 35,000  Level FlightAware ADS-B
Sun 03:43:18 PM 41.3641 -113.8230 76° East 462 532 35,000  Level FlightAware ADS-B
Sun 03:43:49 PM 41.3765 -113.7370 79° East 462 532 35,000  Level FlightAware ADS-B
Sun 03:44:26 PM 41.3895 -113.6360 80° East 463 533 35,000  Level FlightAware ADS-B
Sun 03:45:02 PM 41.4025 -113.5340 80° East 463 533 35,000  Level FlightAware ADS-B
Sun 03:45:32 PM 41.4132 -113.4490 80° East 463 533 35,000  Level FlightAware ADS-B
Sun 03:46:03 PM 41.4240 -113.3640 80° East 463 533 35,000  Level FlightAware ADS-B
Sun 03:46:41 PM 41.4378 -113.2540 80° East 463 533 35,000  Level FlightAware ADS-B
Sun 03:47:12 PM 41.4484 -113.1690 81° East 463 533 35,000  Level FlightAware ADS-B
Sun 03:47:43 PM 41.4593 -113.0810 81° East 463 533 35,000  Level FlightAware ADS-B
Sun 03:48:13 PM 41.4697 -112.9960 81° East 463 533 35,000  Level FlightAware ADS-B
Sun 03:48:45 PM 41.4805 -112.9080 81° East 463 533 35,000  Level FlightAware ADS-B
Sun 03:49:47 PM 41.5017 -112.7320 81° East 463 533 35,000  Level FlightAware ADS-B
Sun 03:50:19 PM 41.5124 -112.6440 81° East 464 534 35,000  Level FlightAware ADS-B
Sun 03:50:51 PM 41.5232 -112.5530 81° East 466 536 35,000  Level FlightAware ADS-B
Sun 03:51:22 PM 41.5335 -112.4650 81° East 466 536 35,000  Level FlightAware ADS-B
Sun 03:51:53 PM 41.5428 -112.3780 82° East 466 536 35,000  Level FlightAware ADS-B
Sun 03:52:23 PM 41.5518 -112.2900 82° East 466 536 35,000  Level FlightAware ADS-B
Sun 03:52:54 PM 41.5610 -112.2020 82° East 466 536 35,000  Level FlightAware ADS-B
Sun 03:53:25 PM 41.5699 -112.1160 82° East 465 535 35,000  Level FlightAware ADS-B
Sun 03:53:56 PM 41.5792 -112.0260 82° East 465 535 35,000  Level FlightAware ADS-B
Sun 03:54:32 PM 41.5896 -111.9250 82° East 465 535 35,000  Level FlightAware ADS-B
Sun 03:55:04 PM 41.5987 -111.8350 82° East 464 534 35,000  Level FlightAware ADS-B
Sun 03:55:36 PM 41.6079 -111.7440 82° East 464 534 35,000  Level FlightAware ADS-B
Sun 03:56:07 PM 41.6169 -111.6550 82° East 464 534 35,000  Level FlightAware ADS-B
Sun 03:56:38 PM 41.6253 -111.5690 83° East 465 535 35,000  Level FlightAware ADS-B
Sun 03:57:08 PM 41.6339 -111.4830 82° East 464 534 35,000  Level FlightAware ADS-B
Sun 03:57:38 PM 41.6423 -111.3960 83° East 464 534 35,000  Level FlightAware ADS-B
Sun 03:58:09 PM 41.6507 -111.3090 83° East 464 534 35,000  Level FlightAware ADS-B
Sun 03:58:40 PM 41.6589 -111.2230 83° East 464 534 35,000  Level FlightAware ADS-B
Sun 03:59:13 PM 41.6679 -111.1290 83° East 464 534 35,000  Level FlightAware ADS-B
Sun 03:59:43 PM 41.6760 -111.0430 83° East 464 534 35,000  Level FlightAware ADS-B
Sun 04:00:13 PM 41.6841 -110.9570 83° East 464 534 35,000  Level FlightAware ADS-B
Sun 04:01:00 PM 41.6962 -110.8260 83° East 464 534 35,000  Level FlightAware ADS-B
Sun 04:01:30 PM 41.7041 -110.7400 83° East 462 532 35,000  Level FlightAware ADS-B
Sun 04:04:01 PM 41.7406 -110.3289 83° East 463 533 35,000  Level Salt Lake Center
Sun 04:05:03 PM 41.7539 -110.1675 84° East 459 528 35,000  Level Salt Lake Center
Sun 04:06:05 PM 41.7708 -109.9769 83° East 460 529 35,000  Level Salt Lake Center
Sun 04:07:07 PM 41.7850 -109.8144 83° East 459 528 35,000  Level Salt Lake Center
Sun 04:08:09 PM 41.8000 -109.6250 84° East 457 526 35,000  Level Salt Lake Center
Sun 04:09:00 PM 41.8087 -109.4515 83° East  Level FlightAware Approximate
Sun 04:09:11 PM 41.8136 -109.4628 84° East 456 525 35,000  Level Salt Lake Center
Sun 04:10:13 PM 41.8300 -109.2725 83° East 456 525 35,000  Level Salt Lake Center
Sun 04:11:15 PM 41.8428 -109.1064 84° East 462 532 35,000  Level Salt Lake Center
Sun 04:12:17 PM 41.8550 -108.9389 84° East 466 536 35,000  Level Salt Lake Center
Sun 04:13:19 PM 41.8706 -108.7425 84° East 472 543 35,000  Level Salt Lake Center
Sun 04:14:21 PM 41.8825 -108.5731 85° East 475 547 35,000  Level Salt Lake Center
Sun 04:15:23 PM 41.8967 -108.3731 84° East 481 554 35,000  Level Salt Lake Center
Sun 04:16:25 PM 41.9089 -108.2025 84° East 479 551 35,000  Level Salt Lake Center
Sun 04:17:27 PM 41.9217 -108.0011 85° East 483 556 35,000  Level Salt Lake Center
Sun 04:18:32 PM 41.9314 -107.8272 86° East 483 556 35,000  Level Denver Center
Sun 04:19:34 PM 41.9453 -107.6278 85° East 480 552 35,000  Level Denver Center
Sun 04:20:36 PM 41.9556 -107.4572 85° East 479 551 35,000  Level Denver Center
Sun 04:21:38 PM 41.9681 -107.2569 85° East 481 554 35,000  Level Denver Center
Sun 04:26:59 PM 42.0220 -106.2820 85° East 485 558 35,000  Level FlightAware ADS-B
Sun 04:27:38 PM 42.0280 -106.1670 86° East 484 557 35,000  Level FlightAware ADS-B
Sun 04:28:16 PM 42.0340 -106.0530 86° East 483 556 35,000  Level FlightAware ADS-B
Sun 04:29:02 PM 42.0410 -105.9180 86° East 481 554 35,000  Level FlightAware ADS-B
Sun 04:31:47 PM 42.0630 -105.4820 86° East 482 555 35,000  Level FlightAware ADS-B
Sun 04:32:30 PM 42.0690 -105.2880 88° East 490 564 35,000  Level FlightAware ADS-B
Sun 04:33:13 PM 42.0760 -105.1580 86° East 488 562 35,000  Level FlightAware ADS-B
Sun 04:33:22 PM 42.0782 -105.1270 85° East 488 562 35,000  Level FlightAware ADS-B
Sun 04:33:53 PM 42.0859 -105.0360 83° East 488 562 35,000  Level FlightAware ADS-B
Sun 04:34:23 PM 42.0939 -104.9450 83° East 487 560 35,000  Level FlightAware ADS-B
Sun 04:34:54 PM 42.1020 -104.8520 83° East 487 560 35,000  Level FlightAware ADS-B
Sun 04:35:26 PM 42.1105 -104.7550 83° East 487 560 35,000  Level FlightAware ADS-B
Sun 04:35:56 PM 42.1183 -104.6640 83° East 487 560 35,000  Level FlightAware ADS-B
Sun 04:36:27 PM 42.1261 -104.5730 83° East 487 560 35,000  Level FlightAware ADS-B
Sun 04:37:00 PM 42.1346 -104.4720 83° East 486 559 35,000  Level FlightAware ADS-B
Sun 04:37:30 PM 42.1421 -104.3820 84° East 485 558 35,000  Level FlightAware ADS-B
Sun 04:38:00 PM 42.1495 -104.2920 84° East 485 558 35,000  Level FlightAware ADS-B
Sun 04:38:30 PM 42.1568 -104.2030 84° East 484 557 35,000  Level FlightAware ADS-B
Sun 04:39:04 PM 42.1651 -104.1010 84° East 482 555 35,000  Level FlightAware ADS-B
Sun 04:39:34 PM 42.1722 -104.0110 84° East 481 554 35,000  Level FlightAware ADS-B
Sun 04:40:04 PM 42.1793 -103.9220 84° East 482 555 35,000  Level FlightAware ADS-B
Sun 04:40:36 PM 42.1866 -103.8290 84° East 482 555 35,000  Level FlightAware ADS-B
Sun 04:41:06 PM 42.1935 -103.7390 84° East 482 555 35,000  Level FlightAware ADS-B
Sun 04:41:36 PM 42.2004 -103.6500 84° East 481 554 35,000  Level FlightAware ADS-B
Sun 04:42:06 PM 42.2072 -103.5590 84° East 482 555 35,000  Level FlightAware ADS-B
Sun 04:42:38 PM 42.2142 -103.4670 84° East 482 555 35,000  Level FlightAware ADS-B
Sun 04:43:08 PM 42.2210 -103.3760 84° East 482 555 35,000  Level FlightAware ADS-B
Sun 04:43:38 PM 42.2276 -103.2860 84° East 482 555 35,000  Level FlightAware ADS-B
Sun 04:44:09 PM 42.2342 -103.1950 84° East 482 555 35,000  Level FlightAware ADS-B
Sun 04:44:39 PM 42.2407 -103.1050 84° East 482 555 35,000  Level FlightAware ADS-B
Sun 04:45:09 PM 42.2472 -103.0140 84° East 482 555 35,000  Level FlightAware ADS-B
Sun 04:45:49 PM 42.2555 -102.8960 85° East 482 555 35,000  Level FlightAware ADS-B
Sun 04:46:19 PM 42.2617 -102.8050 85° East 482 555 35,000  Level FlightAware ADS-B
Sun 04:46:55 PM 42.2690 -102.6980 85° East 482 555 35,000  Level FlightAware ADS-B
Sun 04:47:47 PM 42.2795 -102.5430 85° East 482 555 35,000  Level FlightAware ADS-B
Sun 04:48:36 PM 42.2890 -102.4320 83° East 482 555 35,000  Level FlightAware ADS-B
Sun 04:49:12 PM 42.2960 -102.3400 84° East 482 555 35,000  Level FlightAware ADS-B
Sun 04:49:58 PM 42.3050 -102.2230 84° East 482 555 35,000  Level FlightAware ADS-B
Sun 04:50:34 PM 42.3120 -102.1310 84° East 482 555 35,000  Level FlightAware ADS-B
Sun 04:51:22 PM 42.3220 -102.0090 84° East 482 555 35,000  Level FlightAware ADS-B
Sun 04:52:00 PM 42.3290 -101.9120 84° East 482 555 35,000  Level FlightAware ADS-B
Sun 04:52:48 PM 42.3390 -101.7900 84° East 482 555 35,000  Level FlightAware ADS-B
Sun 04:53:25 PM 42.3460 -101.6950 84° East 482 555 35,000  Level FlightAware ADS-B
Sun 04:54:13 PM 42.3560 -101.5730 84° East 482 555 35,000  Level FlightAware ADS-B
Sun 04:54:49 PM 42.3630 -101.4810 84° East 482 555 35,000  Level FlightAware ADS-B
Sun 04:55:51 PM 42.3750 -101.3230 84° East 482 555 35,000  Level FlightAware ADS-B
Sun 04:56:27 PM 42.3820 -101.2310 84° East 482 555 35,000  Level FlightAware ADS-B
Sun 04:57:15 PM 42.3920 -101.1080 84° East 482 555 35,000  Level FlightAware ADS-B
Sun 04:58:46 PM 42.3931 -100.5908 84° East 479 551 35,000  Level Denver Center
Sun 05:04:30 PM 42.4388 -99.5572 84° East 475 547 35,000  Level FlightAware ADS-B
Sun 05:05:00 PM 42.4424 -99.4680 87° East 474 545 35,000  Level FlightAware ADS-B
Sun 05:05:30 PM 42.4459 -99.3773 87° East 474 545 35,000  Level FlightAware ADS-B
Sun 05:06:01 PM 42.4493 -99.2872 87° East 474 545 35,000  Level FlightAware ADS-B
Sun 05:06:31 PM 42.4527 -99.1979 87° East 474 545 35,000  Level FlightAware ADS-B
Sun 05:07:01 PM 42.4560 -99.1093 87° East 474 545 35,000  Level FlightAware ADS-B
Sun 05:07:34 PM 42.4595 -99.0118 87° East 475 547 35,000  Level FlightAware ADS-B
Sun 05:08:12 PM 42.4633 -98.9014 87° East 475 547 35,000  Level FlightAware ADS-B
Sun 05:08:42 PM 42.4663 -98.8119 87° East 474 545 35,000  Level FlightAware ADS-B
Sun 05:09:12 PM 42.4693 -98.7221 87° East 473 544 35,000  Level FlightAware ADS-B
Sun 05:09:42 PM 42.4727 -98.6326 87° East 472 543 35,000  Level FlightAware ADS-B
Sun 05:10:13 PM 42.4774 -98.5438 86° East 472 543 35,000  Level FlightAware ADS-B
Sun 05:10:43 PM 42.4823 -98.4538 86° East 472 543 35,000  Level FlightAware ADS-B
Sun 05:11:14 PM 42.4868 -98.3629 86° East 472 543 35,000  Level FlightAware ADS-B
Sun 05:12:11 PM 42.4948 -98.1963 86° East 472 543 35,000  Level FlightAware ADS-B
Sun 05:12:41 PM 42.4989 -98.1071 86° East 472 543 35,000  Level FlightAware ADS-B
Sun 05:13:11 PM 42.5029 -98.0187 86° East 472 543 35,000  Level FlightAware ADS-B
Sun 05:13:41 PM 42.5068 -97.9294 87° East 473 544 35,000  Level FlightAware ADS-B
Sun 05:14:11 PM 42.5108 -97.8410 86° East 473 544 35,000  Level FlightAware ADS-B
Sun 05:14:42 PM 42.5147 -97.7512 87° East 474 545 35,000  Level FlightAware ADS-B
Sun 05:15:19 PM 42.5193 -97.6423 87° East 473 544 35,000  Level FlightAware ADS-B
Sun 05:15:56 PM 42.5238 -97.5335 87° East 472 543 35,000  Level FlightAware ADS-B
Sun 05:16:26 PM 42.5275 -97.4443 87° East 472 543 35,000  Level FlightAware ADS-B
Sun 05:16:56 PM 42.5310 -97.3557 87° East 472 543 35,000  Level FlightAware ADS-B
Sun 05:17:26 PM 42.5345 -97.2661 87° East 471 542 35,000 295 Level FlightAware ADS-B
Sun 05:17:57 PM 42.5379 -97.1777 87° East 471 542 35,300 984 Climbing FlightAware ADS-B
Sun 05:18:27 PM 42.5412 -97.0894 87° East 468 539 36,000 1,300 Climbing FlightAware ADS-B
Sun 05:18:57 PM 42.5445 -97.0020 87° East 467 537 36,600 968 Climbing FlightAware ADS-B
Sun 05:19:29 PM 42.5479 -96.9086 87° East 471 542 37,000 375 Climbing FlightAware ADS-B
Sun 05:20:01 PM 42.5511 -96.8145 87° East 471 542 37,000  Level FlightAware ADS-B
Sun 05:20:31 PM 42.5543 -96.7243 87° East 470 541 37,000  Level FlightAware ADS-B
Sun 05:21:02 PM 42.5573 -96.6339 87° East 471 542 37,000  Level FlightAware ADS-B
Sun 05:21:38 PM 42.5608 -96.5284 87° East 470 541 37,000  Level FlightAware ADS-B
Sun 05:22:09 PM 42.5637 -96.4375 87° East 468 539 37,000  Level FlightAware ADS-B
Sun 05:22:43 PM 42.5668 -96.3374 88° East 466 536 37,000  Level FlightAware ADS-B
Sun 05:23:14 PM 42.5695 -96.2494 88° East 464 534 37,000  Level FlightAware ADS-B
Sun 05:23:44 PM 42.5720 -96.1615 88° East 461 531 37,000  Level FlightAware ADS-B
Sun 05:24:15 PM 42.5745 -96.0738 88° East 459 528 37,000  Level FlightAware ADS-B
Sun 05:24:45 PM 42.5770 -95.9873 88° East 457 526 37,000  Level FlightAware ADS-B
Sun 05:25:15 PM 42.5793 -95.9009 88° East 455 524 37,000  Level FlightAware ADS-B
Sun 05:25:45 PM 42.5816 -95.8155 88° East 453 521 37,000  Level FlightAware ADS-B
Sun 05:26:16 PM 42.5838 -95.7298 88° East 452 520 37,000  Level FlightAware ADS-B
Sun 05:26:46 PM 42.5859 -95.6447 88° East 452 520 37,000  Level FlightAware ADS-B
Sun 05:27:16 PM 42.5880 -95.5595 88° East 452 520 37,000  Level FlightAware ADS-B
Sun 05:27:47 PM 42.5901 -95.4724 88° East 453 521 37,000  Level FlightAware ADS-B
Sun 05:28:17 PM 42.5920 -95.3859 88° East 453 521 37,000  Level FlightAware ADS-B
Sun 05:28:47 PM 42.5939 -95.2996 88° East 454 522 37,000  Level FlightAware ADS-B
Sun 05:29:18 PM 42.5957 -95.2131 88° East 455 524 37,000  Level FlightAware ADS-B
Sun 05:29:50 PM 42.5976 -95.1205 88° East 456 525 37,000  Level FlightAware ADS-B
Sun 05:30:20 PM 42.5993 -95.0345 88° East 457 526 37,000  Level FlightAware ADS-B
Sun 05:30:51 PM 42.6010 -94.9476 88° East 458 527 37,000  Level FlightAware ADS-B
Sun 05:31:22 PM 42.6026 -94.8580 89° East 460 529 37,000 590 Level FlightAware ADS-B
Sun 05:31:52 PM 42.6040 -94.7702 89° East 457 526 37,600 1,180 Climbing FlightAware ADS-B
Sun 05:32:23 PM 42.6054 -94.6835 89° East 455 524 38,200 968 Climbing FlightAware ADS-B
Sun 05:32:54 PM 42.6068 -94.5941 89° East 455 524 38,600 774 Climbing FlightAware ADS-B
Sun 05:33:25 PM 42.6082 -94.5080 89° East 456 525 39,000 393 Climbing FlightAware ADS-B
Sun 05:33:55 PM 42.6095 -94.4208 89° East 457 526 39,000  Level FlightAware ADS-B
Sun 05:34:26 PM 42.6107 -94.3337 89° East 456 525 39,000  Level FlightAware ADS-B
Sun 05:34:57 PM 42.6117 -94.2442 89° East 458 527 39,000  Level FlightAware ADS-B
Sun 05:35:31 PM 42.6126 -94.1467 89° East 459 528 39,000  Level FlightAware ADS-B
Sun 05:36:01 PM 42.6132 -94.0597 89° East 461 531 39,000  Level FlightAware ADS-B
Sun 05:36:56 PM 42.6143 -93.9017 89° East 462 532 39,000  Level FlightAware ADS-B
Sun 05:37:26 PM 42.6148 -93.8134 90° East 463 533 39,000  Level FlightAware ADS-B
Sun 05:38:13 PM 42.6156 -93.6775 89° East 463 533 39,000  Level FlightAware ADS-B
Sun 05:39:16 PM 42.6160 -93.4940 90° East 465 535 39,000  Level FlightAware ADS-B
Sun 05:40:12 PM 42.6170 -93.3330 89° East 464 534 39,000  Level FlightAware ADS-B
Sun 05:40:52 PM 42.6170 -93.2160 90° East 463 533 39,000  Level FlightAware ADS-B
Sun 05:41:36 PM 42.6170 -93.0900 90° East 462 532 39,000  Level FlightAware ADS-B
Sun 05:42:16 PM 42.6170 -92.9740 90° East 460 529 39,000  Level FlightAware ADS-B
Sun 05:42:58 PM 42.6160 -92.8530 91° East 460 529 39,000  Level FlightAware ADS-B
Sun 05:43:42 PM 42.6160 -92.7270 90° East 460 529 39,000  Level FlightAware ADS-B
Sun 05:44:26 PM 42.6150 -92.6000 91° East 460 529 39,000  Level FlightAware ADS-B
Sun 05:45:06 PM 42.6150 -92.4850 90° East 460 529 39,000  Level FlightAware ADS-B
Sun 05:45:44 PM 42.6140 -92.3800 91° East 460 529 39,000  Level FlightAware ADS-B
Sun 05:46:30 PM 42.6130 -92.2440 91° East 460 529 39,000  Level FlightAware ADS-B
Sun 05:47:14 PM 42.6120 -92.1160 91° East 460 529 39,000  Level FlightAware ADS-B
Sun 05:47:55 PM 42.6110 -91.9990 91° East 460 529 39,000  Level FlightAware ADS-B
Sun 05:48:34 PM 42.6090 -91.8850 91° East 460 529 39,000  Level FlightAware ADS-B
Sun 05:49:20 PM 42.6080 -91.7530 91° East 460 529 39,000  Level FlightAware ADS-B
Sun 05:49:55 PM 42.6070 -91.6560 91° East 460 529 39,000  Level FlightAware ADS-B
Sun 05:50:42 PM 42.6050 -91.5160 91° East 460 529 39,000  Level FlightAware ADS-B
Sun 05:51:22 PM 42.6030 -91.4030 91° East 461 531 39,000  Level FlightAware ADS-B
Sun 05:52:06 PM 42.6010 -91.2740 91° East 461 531 39,000  Level FlightAware ADS-B
Sun 05:52:47 PM 42.5990 -91.1580 91° East 461 531 39,000  Level FlightAware ADS-B
Sun 05:53:31 PM 42.5970 -91.0330 91° East 461 531 39,000  Level FlightAware ADS-B
Sun 05:54:13 PM 42.5940 -90.9120 92° East 461 531 39,000  Level FlightAware ADS-B
Sun 05:54:52 PM 42.5920 -90.7970 91° East 461 531 39,000  Level FlightAware ADS-B
Sun 05:55:33 PM 42.5900 -90.6800 91° East 460 529 39,000  Level FlightAware ADS-B
Sun 05:56:19 PM 42.5870 -90.5510 92° East 459 528 39,000  Level FlightAware ADS-B
Sun 05:57:00 PM 42.5840 -90.4320 92° East 459 528 39,000  Level FlightAware ADS-B
Sun 05:57:40 PM 42.5810 -90.3190 92° East 459 528 39,000  Level FlightAware ADS-B
Sun 05:58:22 PM 42.5780 -90.1970 92° East 458 527 39,000  Level FlightAware ADS-B
Sun 05:59:06 PM 42.5750 -90.0710 92° East 458 527 39,000  Level FlightAware ADS-B
Sun 05:59:48 PM 42.5710 -89.9470 92° East 457 526 39,000  Level FlightAware ADS-B
Sun 06:00:29 PM 42.5690 -89.8770 92° East 456 525 39,000  Level FlightAware ADS-B
Sun 06:01:18 PM 42.5640 -89.6910 92° East 456 525 39,000  Level FlightAware ADS-B
Sun 06:01:58 PM 42.5600 -89.5750 93° East 456 525 39,000  Level FlightAware ADS-B
Sun 06:02:43 PM 42.5560 -89.4490 92° East 455 524 39,000  Level FlightAware ADS-B
Sun 06:03:22 PM 42.5530 -89.3370 92° East 453 521 39,000  Level FlightAware ADS-B
Sun 06:04:02 PM 42.5490 -89.2230 93° East 452 520 39,000  Level FlightAware ADS-B
Sun 06:04:47 PM 42.5440 -89.0980 93° East 452 520 39,000  Level FlightAware ADS-B
Sun 06:05:30 PM 42.5400 -88.9760 93° East 451 519 39,000  Level FlightAware ADS-B
Sun 06:06:51 PM 42.5310 -88.7490 93° East 450 518 39,000  Level FlightAware ADS-B
Sun 06:07:30 PM 42.5270 -88.6380 93° East 450 518 39,000  Level FlightAware ADS-B
Sun 06:08:14 PM 42.5220 -88.5130 93° East 452 520 39,000  Level FlightAware ADS-B
Sun 06:08:54 PM 42.5170 -88.4020 93° East 454 522 39,000  Level FlightAware ADS-B
Sun 06:09:43 PM 42.5120 -88.2610 93° East 455 524 39,000  Level FlightAware ADS-B
Sun 06:10:22 PM 42.5070 -88.1520 94° East 455 524 39,000  Level FlightAware ADS-B
Sun 06:10:58 PM 42.5020 -88.0480 94° East 457 526 39,000  Level FlightAware ADS-B
Sun 06:11:44 PM 42.5000 -87.9160 91° East 458 527 39,000  Level FlightAware ADS-B
Sun 06:12:31 PM 42.5000 -87.7840 90° East 459 528 39,000  Level FlightAware ADS-B
Sun 06:13:06 PM 42.5000 -87.6810 90° East 458 527 39,000  Level FlightAware ADS-B
Sun 06:13:50 PM 42.4990 -87.5570 91° East 458 527 39,000  Level FlightAware ADS-B
Sun 06:14:34 PM 42.4990 -87.4400 90° East 458 527 39,000  Level FlightAware ADS-B
Sun 06:15:14 PM 42.4980 -87.3210 91° East 458 527 39,000  Level FlightAware ADS-B
Sun 06:17:49 PM 42.4950 -86.9020 90° East 460 529 39,000  Level FlightAware ADS-B
Sun 06:18:37 PM 42.4930 -86.7380 91° East 460 529 39,000  Level FlightAware ADS-B
Sun 06:19:16 PM 42.4920 -86.6210 91° East 461 531 39,000  Level FlightAware ADS-B
Sun 06:20:00 PM 42.4910 -86.4930 91° East 463 533 39,000  Level FlightAware ADS-B
Sun 06:20:40 PM 42.4890 -86.3800 91° East 463 533 39,000  Level FlightAware ADS-B
Sun 06:21:24 PM 42.4870 -86.2520 91° East 465 535 39,000  Level FlightAware ADS-B
Sun 06:22:04 PM 42.4850 -86.1350 91° East 466 536 39,000  Level FlightAware ADS-B
Sun 06:22:48 PM 42.4830 -86.0080 91° East 466 536 39,000  Level FlightAware ADS-B
Sun 06:23:28 PM 42.4810 -85.8900 91° East 467 537 39,000  Level FlightAware ADS-B
Sun 06:24:12 PM 42.4790 -85.7630 91° East 468 539 39,000  Level FlightAware ADS-B
Sun 06:24:52 PM 42.4760 -85.6460 92° East 470 541 39,000  Level FlightAware ADS-B
Sun 06:25:36 PM 42.4740 -85.5160 91° East 470 541 39,000  Level FlightAware ADS-B
Sun 06:26:16 PM 42.4710 -85.3990 92° East 471 542 39,000  Level FlightAware ADS-B
Sun 06:27:00 PM 42.4680 -85.2710 92° East 473 544 39,000  Level FlightAware ADS-B
Sun 06:27:41 PM 42.4650 -85.1490 92° East 474 545 39,000  Level FlightAware ADS-B
Sun 06:28:16 PM 42.4630 -85.0480 92° East 476 548 39,000  Level FlightAware ADS-B
Sun 06:29:04 PM 42.4590 -84.9010 92° East 477 549 39,000  Level FlightAware ADS-B
Sun 06:29:48 PM 42.4550 -84.7690 92° East 478 550 39,000  Level FlightAware ADS-B
Sun 06:30:28 PM 42.4520 -84.6500 92° East 478 550 39,000  Level FlightAware ADS-B
Sun 06:31:13 PM 42.4480 -84.5170 92° East 480 552 39,000  Level FlightAware ADS-B
Sun 06:31:52 PM 42.4440 -84.3980 93° East 482 555 39,000  Level FlightAware ADS-B
Sun 06:32:36 PM 42.4400 -84.2650 92° East 483 556 39,000  Level FlightAware ADS-B
Sun 06:33:17 PM 42.4360 -84.1450 93° East 484 557 39,000  Level FlightAware ADS-B
Sun 06:33:57 PM 42.4320 -84.0230 93° East 485 558 39,000  Level FlightAware ADS-B
Sun 06:34:41 PM 42.4280 -83.8910 92° East 486 559 39,000  Level FlightAware ADS-B
Sun 06:35:25 PM 42.4230 -83.7580 93° East 489 563 39,000  Level FlightAware ADS-B
Sun 06:36:05 PM 42.4180 -83.6350 93° East 490 564 39,000  Level FlightAware ADS-B
Sun 06:36:49 PM 42.4130 -83.5010 93° East 492 566 39,000  Level FlightAware ADS-B
Sun 06:37:29 PM 42.4080 -83.3770 93° East 494 568 39,000  Level FlightAware ADS-B
Sun 06:38:09 PM 42.4030 -83.2550 93° East 496 571 39,000  Level FlightAware ADS-B
Sun 06:38:53 PM 42.3970 -83.1170 93° East 499 574 39,000  Level FlightAware ADS-B
Sun 06:39:50 PM 42.3900 -82.9420 93° East 502 578 39,000  Level FlightAware ADS-B
Sun 06:40:29 PM 42.3840 -82.8190 94° East 504 580 39,000  Level FlightAware ADS-B
Sun 06:41:15 PM 42.3780 -82.6710 93° East 507 583 39,000  Level FlightAware ADS-B
Sun 06:41:55 PM 42.3730 -82.5450 93° East 510 587 39,000  Level FlightAware ADS-B
Sun 06:42:39 PM 42.3680 -82.4070 93° East 511 588 39,000  Level FlightAware ADS-B
Sun 06:43:19 PM 42.3620 -82.2760 94° East 511 588 39,000  Level FlightAware ADS-B
Sun 06:44:02 PM 42.3570 -82.1410 93° East 512 589 39,000  Level FlightAware ADS-B
Sun 06:44:42 PM 42.3510 -82.0200 94° East 515 593 39,000  Level FlightAware ADS-B
Sun 06:45:27 PM 42.3450 -81.8700 93° East 516 594 39,000  Level FlightAware ADS-B
Sun 06:46:07 PM 42.3390 -81.7380 93° East 517 595 39,000  Level FlightAware ADS-B
Sun 06:46:50 PM 42.3320 -81.6030 94° East 520 598 39,000  Level FlightAware ADS-B
Sun 06:47:29 PM 42.3270 -81.4930 93° East 522 601 39,000  Level FlightAware ADS-B
Sun 06:48:15 PM 42.3200 -81.3440 94° East 523 602 39,000  Level FlightAware ADS-B
Sun 06:48:55 PM 42.3140 -81.2140 94° East 524 603 39,000  Level FlightAware ADS-B
Sun 06:49:34 PM 42.3070 -81.0860 94° East 525 604 39,000  Level FlightAware ADS-B
Sun 06:50:13 PM 42.3000 -80.9590 94° East 526 605 39,000  Level FlightAware ADS-B
Sun 06:51:03 PM 42.2920 -80.7990 94° East 526 605 39,000  Level FlightAware ADS-B
Sun 06:51:38 PM 42.2860 -80.6900 94° East 526 605 39,000  Level FlightAware ADS-B
Sun 06:52:24 PM 42.2770 -80.5310 94° East 526 605 39,000  Level FlightAware ADS-B
Sun 06:53:06 PM 42.2690 -80.3960 95° East 525 604 39,000  Level FlightAware ADS-B
Sun 06:53:51 PM 42.2610 -80.2520 94° East 523 602 39,000  Level FlightAware ADS-B
Sun 06:54:25 PM 42.2540 -80.1380 95° East 522 601 39,000  Level FlightAware ADS-B
Sun 06:55:08 PM 42.2460 -79.9990 94° East 521 600 39,000  Level FlightAware ADS-B
Sun 06:56:08 PM 42.2340 -79.8050 95° East 519 597 39,000  Level FlightAware ADS-B
Sun 06:56:46 PM 42.2260 -79.6850 95° East 516 594 39,000  Level FlightAware ADS-B
Sun 06:57:33 PM 42.2160 -79.5320 95° East 513 590 39,000  Level FlightAware ADS-B
Sun 06:58:09 PM 42.2090 -79.4230 95° East 511 588 39,000  Level FlightAware ADS-B
Sun 06:58:56 PM 42.1990 -79.2730 95° East 510 587 39,000  Level FlightAware ADS-B
Sun 06:59:38 PM 42.1880 -79.1400 96° East 503 579 39,000  Level FlightAware ADS-B
Sun 07:00:21 PM 42.1650 -79.0260 105° East 491 565 39,000  Level FlightAware ADS-B
Sun 07:01:04 PM 42.1260 -78.8670 108° East 488 562 39,000  Level FlightAware ADS-B
Sun 07:01:42 PM 42.0980 -78.7580 109° East 487 560 39,000  Level FlightAware ADS-B
Sun 07:02:28 PM 42.0650 -78.6280 109° East 486 559 39,000  Level FlightAware ADS-B
Sun 07:03:08 PM 42.0350 -78.5120 109° East 487 560 39,000  Level FlightAware ADS-B
Sun 07:03:51 PM 42.0050 -78.3920 109° East 487 560 39,000  Level FlightAware ADS-B
Sun 07:04:31 PM 41.9760 -78.2780 109° East 486 559 39,000  Level FlightAware ADS-B
Sun 07:05:57 PM 41.9120 -78.0330 109° East 486 559 39,000  Level FlightAware ADS-B
Sun 07:06:37 PM 41.8820 -77.9190 109° East 486 559 39,000  Level FlightAware ADS-B
Sun 07:07:21 PM 41.8490 -77.7920 109° East 483 556 39,000  Level FlightAware ADS-B
Sun 07:08:01 PM 41.8200 -77.6820 109° East 482 555 39,000  Level FlightAware ADS-B
Sun 07:09:09 PM 41.7690 -77.4890 109° East 481 554 39,000  Level FlightAware ADS-B
Sun 07:09:53 PM 41.7360 -77.3660 110° East 482 555 39,000  Level FlightAware ADS-B
Sun 07:10:37 PM 41.7040 -77.2440 109° East 483 556 39,000  Level FlightAware ADS-B
Sun 07:11:28 PM 41.6650 -77.1020 110° East 484 557 39,000  Level FlightAware ADS-B
Sun 07:12:10 PM 41.6340 -76.9850 109° East 483 556 39,000  Level FlightAware ADS-B
Sun 07:12:32 PM 41.6163 -76.9207 110° East 484 557 39,000  Level FlightAware ADS-B
Sun 07:13:02 PM 41.5933 -76.8365 110° East 483 556 39,000  Level FlightAware ADS-B
Sun 07:13:33 PM 41.5692 -76.7482 110° East 482 555 39,000  Level FlightAware ADS-B
Sun 07:14:03 PM 41.5461 -76.6643 110° East 482 555 39,000  Level FlightAware ADS-B
Sun 07:14:34 PM 41.5224 -76.5782 110° East 482 555 39,000  Level FlightAware ADS-B
Sun 07:15:05 PM 41.4990 -76.4935 110° East 483 556 39,000  Level FlightAware ADS-B
Sun 07:15:42 PM 41.4705 -76.3907 110° East 483 556 39,000 -179 Level FlightAware ADS-B
Sun 07:16:12 PM 41.4469 -76.3062 110° East 480 552 38,800 -1,000 Descending FlightAware ADS-B
Sun 07:16:42 PM 41.4235 -76.2224 110° East 482 555 38,000 -2,066 Descending FlightAware ADS-B
Sun 07:17:13 PM 41.3995 -76.1369 110° East 487 560 36,700 -2,710 Descending FlightAware ADS-B
Sun 07:17:44 PM 41.3749 -76.0497 111° Southeast 492 566 35,200 -2,955 Descending FlightAware ADS-B
Sun 07:18:20 PM 41.3459 -75.9467 111° Southeast 498 573 33,400 -2,955 Descending FlightAware ADS-B
Sun 07:18:51 PM 41.3210 -75.8588 111° Southeast 501 577 31,900 -3,049 Descending FlightAware ADS-B
Sun 07:19:21 PM 41.2964 -75.7721 111° Southeast 505 581 30,300 -3,300 Descending FlightAware ADS-B
Sun 07:19:51 PM 41.2708 -75.6854 111° Southeast 507 583 28,600 -3,100 Descending FlightAware ADS-B
Sun 07:20:21 PM 41.2429 -75.5989 113° Southeast 500 575 27,200 -2,613 Descending FlightAware ADS-B
Sun 07:20:53 PM 41.2135 -75.5104 114° Southeast 492 566 25,900 -2,507 Descending FlightAware ADS-B
Sun 07:21:28 PM 41.1820 -75.4169 114° Southeast 484 557 24,400 -2,492 Descending FlightAware ADS-B
Sun 07:21:58 PM 41.1545 -75.3351 114° Southeast 477 549 23,200 -1,377 Descending FlightAware ADS-B
Sun 07:22:29 PM 41.1270 -75.2540 114° Southeast 476 548 23,000 -197 Descending FlightAware ADS-B
Sun 07:22:59 PM 41.0998 -75.1735 114° Southeast 466 536 23,000  Level FlightAware ADS-B
Sun 07:23:30 PM 41.0727 -75.0941 114° Southeast 464 534 23,000  Level FlightAware ADS-B
Sun 07:24:00 PM 41.0463 -75.0165 114° Southeast 462 532 23,000 -492 Level FlightAware ADS-B
Sun 07:24:31 PM 41.0192 -74.9371 114° Southeast 455 524 22,500 -1,277 Descending FlightAware ADS-B
Sun 07:24:47 PM 41.0066 -74.8969 113° Southeast 453 521 22,000 -2,211 Descending FlightAware ADS-B
Sun 07:25:09 PM 40.9935 -74.8368 106° East 453 521 21,100 -2,151 Descending FlightAware ADS-B
Sun 07:25:40 PM 40.9829 -74.7552 100° East 449 517 20,100 -1,935 Descending FlightAware ADS-B
Sun 07:26:11 PM 40.9741 -74.6714 98° East 439 505 19,100 -1,875 Descending FlightAware ADS-B
Sun 07:26:12 PM 40.9737 -74.6679 99° East 439 505 19,100 -194 Level FlightAware ADS-B
Sun 07:26:42 PM 40.9654 -74.5892 98° East 436 502 19,000 -171 Descending FlightAware ADS-B
Sun 07:26:47 PM 40.9640 -74.5758 98° East 436 502 19,000  Level FlightAware ADS-B
Sun 07:27:12 PM 40.9568 -74.5092 98° East 437 503 19,000  Level FlightAware ADS-B
Sun 07:27:43 PM 40.9480 -74.4286 98° East 439 505 19,000  Level FlightAware ADS-B
Sun 07:28:14 PM 40.9387 -74.3459 98° East 440 506 19,000  Level FlightAware ADS-B
Sun 07:28:33 PM 40.9323 -74.2968 100° East 427 491 19,000  Level FlightAware ADS-B
Sun 07:28:40 PM 40.9281 -74.2783 107° East 416 479 19,000  Level FlightAware ADS-B
Sun 07:28:51 PM 40.9204 -74.2535 112° Southeast 411 473 19,000  Level FlightAware ADS-B
Sun 07:28:54 PM 40.9174 -74.2460 118° Southeast 410 472 19,000  Level FlightAware ADS-B
Sun 07:28:59 PM 40.9126 -74.2352 120° Southeast 413 475 19,000 -240 Level FlightAware ADS-B
Sun 07:29:19 PM 40.8897 -74.1965 128° Southeast 412 474 18,900 -1,320 Descending FlightAware ADS-B
Sun 07:29:49 PM 40.8509 -74.1413 133° Southeast 413 475 17,900 -2,118 Descending FlightAware ADS-B
Sun 07:29:53 PM 40.8453 -74.1337 134° Southeast 410 472 17,700 -2,400 Descending FlightAware ADS-B
Sun 07:29:59 PM 40.8367 -74.1234 138° Southeast 412 474 17,500 -2,308 Descending FlightAware ADS-B
Sun 07:30:06 PM 40.8262 -74.1125 142° Southeast 408 470 17,200 -2,250 Descending FlightAware ADS-B
Sun 07:30:07 PM 40.8256 -74.1119 143° Southeast 407 468 17,200 -1,500 Level FlightAware ADS-B
Sun 07:30:10 PM 40.8203 -74.1072 146° Southeast 404 465 17,100 -2,118 Descending FlightAware ADS-B
Sun 07:30:24 PM 40.7973 -74.0902 151° Southeast 395 455 16,600 -2,000 Descending FlightAware ADS-B
Sun 07:30:25 PM 40.7963 -74.0895 152° Southeast 395 455 16,600 -1,161 Level FlightAware ADS-B
Sun 07:30:55 PM 40.7470 -74.0579 154° Southeast 384 442 16,000 -1,279 Descending FlightAware ADS-B
Sun 07:31:26 PM 40.6977 -74.0268 154° Southeast 378 435 15,300 -1,645 Descending FlightAware ADS-B
Sun 07:31:57 PM 40.6501 -73.9967 154° Southeast 370 426 14,300 -2,077 Descending FlightAware ADS-B
Sun 07:32:18 PM 40.6175 -73.9761 154° Southeast 369 425 13,500 -2,195 Descending FlightAware ADS-B
Sun 07:32:38 PM 40.5879 -73.9575 154° Southeast 356 410 12,800 -1,811 Descending FlightAware ADS-B
Sun 07:33:11 PM 40.5429 -73.9268 153° Southeast 319 367 11,900 -1,612 Descending FlightAware ADS-B
Sun 07:33:45 PM 40.5083 -73.8836 136° Southeast 293 337 11,000 -1,754 Descending FlightAware ADS-B
Sun 07:34:16 PM 40.4795 -73.8449 134° Southeast 281 323 10,000 -2,087 Descending FlightAware ADS-B
Sun 07:34:31 PM 40.4660 -73.8271 135° Southeast 278 320 9,400 -2,400 Descending FlightAware ADS-B
Sun 07:34:46 PM 40.4524 -73.8090 135° Southeast 277 319 8,800 -2,200 Descending FlightAware ADS-B
Sun 07:35:01 PM 40.4388 -73.7903 134° Southeast 275 316 8,300 -2,129 Descending FlightAware ADS-B
Sun 07:35:17 PM 40.4255 -73.7721 134° Southeast 272 313 7,700 -2,323 Descending FlightAware ADS-B
Sun 07:35:32 PM 40.4124 -73.7542 134° Southeast 271 312 7,100 -2,286 Descending FlightAware ADS-B
Sun 07:35:38 PM 40.4071 -73.7463 131° Southeast 271 312 6,900 -2,087 Descending FlightAware ADS-B
Sun 07:35:55 PM 40.3963 -73.7225 121° Southeast 272 313 6,300 -2,294 Descending FlightAware ADS-B
Sun 07:36:12 PM 40.3876 -73.6964 114° Southeast 271 312 5,600 -2,200 Descending FlightAware ADS-B
Sun 07:36:25 PM 40.3846 -73.6763 101° East 273 314 5,200 -1,737 Descending FlightAware ADS-B
Sun 07:36:50 PM 40.3864 -73.6337 87° East 277 319 4,500 -1,500 Descending FlightAware ADS-B
Sun 07:37:01 PM 40.3938 -73.6177 59° Northeast 284 327 4,300 -769 Descending FlightAware ADS-B
Sun 07:37:29 PM 40.4185 -73.5837 46° Northeast 286 329 4,000 -281 Descending FlightAware ADS-B
Sun 07:38:05 PM 40.4550 -73.5440 40° Northeast 282 325 4,000  Level FlightAware ADS-B
Sun 07:38:29 PM 40.4840 -73.5250 26° Northeast 278 320 4,000  Level FlightAware ADS-B
Sun 07:38:47 PM 40.5020 -73.5120 29° Northeast 259 298 4,000  Level FlightAware ADS-B
Sun 07:39:15 PM 40.5300 -73.4930 27° Northeast 242 278 4,000  Level FlightAware ADS-B
Sun 07:39:31 PM 40.5460 -73.4820 28° Northeast 244 281 4,000  Level FlightAware ADS-B
Sun 07:39:59 PM 40.5750 -73.4620 28° Northeast 244 281 4,000  Level FlightAware ADS-B
Sun 07:40:26 PM 40.6010 -73.4450 26° Northeast 242 278 4,000  Level FlightAware ADS-B
Sun 07:40:39 PM 40.6160 -73.4410 11° North 238 274 4,000  Level FlightAware ADS-B
Sun 07:41:05 PM 40.6450 -73.4410 360° North 239 275 4,000  Level FlightAware ADS-B
Sun 07:41:34 PM 40.6770 -73.4420 359° North 239 275 4,000  Level FlightAware ADS-B
Sun 07:41:47 PM 40.6910 -73.4460 348° North 235 270 4,000  Level FlightAware ADS-B
Sun 07:42:15 PM 40.7190 -73.4590 341° North 237 273 4,000 -643 Level FlightAware ADS-B
Sun 07:42:43 PM 40.7490 -73.4740 339° North 232 267 3,400 -955 Descending FlightAware ADS-B
Sun 07:42:59 PM 40.7630 -73.4810 339° North 218 251 3,300 -429 Descending FlightAware ADS-B
Sun 07:43:25 PM 40.7860 -73.4950 335° Northwest 196 226 3,100 -450 Descending FlightAware ADS-B
Sun 07:43:39 PM 40.7930 -73.5090 303° West 192 221 3,000 -143 Descending FlightAware ADS-B
Sun 07:44:07 PM 40.8060 -73.5390 300° West 193 222 3,000 -400 Level FlightAware ADS-B
Sun 07:44:24 PM 40.8130 -73.5550 300° West 192 221 2,700 -1,111 Descending FlightAware ADS-B
Sun 07:44:34 PM 40.8170 -73.5660 296° West 189 217 2,500 -1,050 Descending FlightAware ADS-B
Sun 07:45:04 PM 40.8090 -73.5960 251° West 175 201 2,000 -536 Descending FlightAware ADS-B
Sun 07:45:30 PM 40.7990 -73.6210 242° Southwest 177 204 2,000  Level FlightAware ADS-B
Sun 07:46:00 PM 40.7840 -73.6440 229° Southwest 153 176 2,000  Level FlightAware ADS-B
Sun 07:46:28 PM 40.7690 -73.6590 217° Southwest 150 173 2,000  Level FlightAware ADS-B
Sun 07:46:56 PM 40.7520 -73.6720 210° Southwest 150 173 2,000  Level FlightAware ADS-B
Sun 07:47:12 PM 40.7420 -73.6790 208° Southwest 149 171 2,000 -136 Level FlightAware ADS-B
Sun 07:47:40 PM 40.7260 -73.6910 210° Southwest 147 169 1,900 -536 Descending FlightAware ADS-B
Sun 07:48:08 PM 40.7110 -73.7040 213° Southwest 126 145 1,500 -750 Descending FlightAware ADS-B
Sun 07:48:20 PM 40.7040 -73.7090 208° Southwest 126 145 1,400 -600 Descending FlightAware ADS-B
Sun 07:48:48 PM 40.6910 -73.7190 210° Southwest 125 144 1,100 -643 Descending FlightAware ADS-B
Sun 07:49:16 PM 40.6770 -73.7300 211° Southwest 123 142 800 -606 Descending FlightAware ADS-B
Sun 07:50:27 PM 40.6460 -73.7540 210° Southwest 134 154 100 -592 Descending FlightAware ADS-B
Sun 07:50:54 PM 40.6310 -73.7660 211° Southwest 38 44 -222 Descending FlightAware ADS-B
Sun 07:51:03 PM 40.6300 -73.7670 217° Southwest 32 37  Level FlightAware ADS-B
Sun 07:51:56 PM 40.6310 -73.7720 285° West 15 17  Level FlightAware ADS-B

Login

Don't have an account? Register now (free) for customized features, flight alerts, and more!